Time;durP1;ratioP1;P1;durP2;ratioP2;P2;SDS_P1;SDS_P2;PMS_P1;PMS_P2;Temp;Humidity;BMP_temperature;BMP_pressure;BME280_temperature;BME280_humidity;BME280_pressure;Samples;Min_cycle;Max_cycle;Signal;HPM_P1;HPM_P2
2022/08/25 00:00:19;;;;;;;3.42;3.13;;;24.30;66.10;;;;;;5062335;28;20491;-74
2022/08/25 00:02:45;;;;;;;4.57;3.20;;;24.30;66.10;;;;;;5073496;28;20052;-74
2022/08/25 00:05:12;;;;;;;4.07;3.40;;;24.20;66.00;;;;;;5073355;28;20136;-71
2022/08/25 00:07:39;;;;;;;4.50;3.38;;;24.30;66.00;;;;;;5073586;28;20420;-70
2022/08/25 00:10:07;;;;;;;3.13;2.83;;;24.20;66.00;;;;;;5073015;28;20053;-72
2022/08/25 00:12:35;;;;;;;3.22;2.92;;;24.20;65.90;;;;;;5073611;28;20533;-70
2022/08/25 00:15:02;;;;;;;3.50;3.20;;;24.20;65.90;;;;;;5056779;28;20061;-70
2022/08/25 00:17:28;;;;;;;3.92;2.97;;;24.20;65.90;;;;;;5053402;28;20063;-71
2022/08/25 00:19:55;;;;;;;3.75;3.10;;;24.20;65.90;;;;;;5053072;28;20387;-73
2022/08/25 00:22:22;;;;;;;3.40;3.10;;;24.20;65.90;;;;;;5053213;28;20053;-72
2022/08/25 00:24:49;;;;;;;3.50;3.13;;;24.20;65.90;;;;;;5054159;28;20576;-71
2022/08/25 00:27:16;;;;;;;3.70;3.40;;;24.20;65.90;;;;;;5053293;28;20131;-72
2022/08/25 00:29:44;;;;;;;3.28;2.97;;;24.20;65.80;;;;;;5069733;28;20049;-72
2022/08/25 00:32:12;;;;;;;3.67;3.20;;;24.20;65.80;;;;;;5072921;28;20420;-71
2022/08/25 00:34:39;;;;;;;3.30;3.00;;;24.10;65.80;;;;;;5074120;28;20106;-71
2022/08/25 00:37:08;;;;;;;3.40;3.10;;;24.20;65.80;;;;;;5066222;28;20045;-71
2022/08/25 00:39:34;;;;;;;3.22;2.92;;;24.10;65.70;;;;;;5053221;28;20057;-71
2022/08/25 00:42:01;;;;;;;2.90;2.60;;;24.10;65.70;;;;;;5055655;28;20576;-71
2022/08/25 00:44:29;;;;;;;3.85;3.00;;;24.10;65.60;;;;;;5072741;28;20091;-71
2022/08/25 00:46:59;;;;;;;3.10;2.80;;;24.10;65.60;;;;;;5072365;28;20139;-72
2022/08/25 00:49:28;;;;;;;3.60;2.88;;;24.10;65.60;;;;;;5072667;28;20428;-71
2022/08/25 00:51:57;;;;;;;3.60;2.72;;;24.10;65.60;;;;;;5072513;28;20127;-71
2022/08/25 00:54:27;;;;;;;3.33;2.90;;;24.10;65.60;;;;;;5073302;28;20465;-71
2022/08/25 00:56:53;;;;;;;3.17;2.78;;;22.70;64.80;;;;;;5062680;28;20044;-74
2022/08/25 00:59:20;;;;;;;3.05;2.70;;;24.10;65.50;;;;;;5052388;28;20051;-74
2022/08/25 01:01:48;;;;;;;3.35;2.80;;;24.10;65.50;;;;;;5052065;28;20132;-70
2022/08/25 01:04:16;;;;;;;2.97;2.67;;;24.10;65.70;;;;;;5053430;28;20555;-70
2022/08/25 01:06:43;;;;;;;3.40;3.05;;;24.10;65.50;;;;;;5052445;28;20106;-70
2022/08/25 01:09:10;;;;;;;3.65;2.65;;;24.10;65.50;;;;;;5053493;28;20049;-70
2022/08/25 01:11:37;;;;;;;3.92;3.20;;;24.10;65.50;;;;;;5063978;28;20413;-70
2022/08/25 01:14:05;;;;;;;3.67;2.75;;;24.10;65.50;;;;;;5072257;28;20052;-70
2022/08/25 01:16:33;;;;;;;3.50;2.90;;;24.10;65.40;;;;;;5072341;28;20060;-70
2022/08/25 01:19:00;;;;;;;3.45;3.05;;;24.00;65.40;;;;;;5072262;28;20493;-70
2022/08/25 01:21:30;;;;;;;3.58;2.95;;;24.00;65.40;;;;;;5072164;28;20052;-70
2022/08/25 01:23:57;;;;;;;3.28;2.88;;;24.00;65.30;;;;;;5071688;28;20062;-72
2022/08/25 01:26:25;;;;;;;3.72;2.90;;;24.00;65.30;;;;;;5063174;28;20064;-72
2022/08/25 01:31:37;;;;;;;3.25;2.90;;;24.00;65.30;;;;;;5072858;28;20049;-71
2022/08/25 01:34:04;;;;;;;2.85;2.58;;;24.00;65.30;;;;;;5072779;28;20049;-72
2022/08/25 01:36:32;;;;;;;3.25;2.70;;;24.00;65.30;;;;;;5071887;28;20420;-71
2022/08/25 01:38:59;;;;;;;2.97;2.67;;;24.00;65.30;;;;;;5069592;28;20059;-72
2022/08/25 01:41:30;;;;;;;3.17;2.83;;;24.00;65.30;;;;;;5072689;28;20055;-72
2022/08/25 01:43:57;;;;;;;3.22;2.90;;;24.00;65.20;;;;;;5072578;28;20108;-72
2022/08/25 01:46:23;;;;;;;3.50;2.85;;;23.90;65.20;;;;;;5071460;28;20052;-71
2022/08/25 01:48:50;;;;;;;3.97;2.55;;;23.90;65.10;;;;;;5071577;28;20048;-72
2022/08/25 01:51:17;;;;;;;3.20;2.90;;;23.90;65.10;;;;;;5071149;28;20132;-72
2022/08/25 01:53:45;;;;;;;2.85;2.38;;;23.40;64.90;;;;;;5053972;28;20090;-72
2022/08/25 01:56:13;;;;;;;3.63;2.80;;;23.90;65.10;;;;;;5051553;28;20143;-74
2022/08/25 01:58:41;;;;;;;4.05;2.85;;;23.90;65.10;;;;;;5050738;28;20406;-74
2022/08/25 02:01:10;;;;;;;3.08;2.75;;;23.90;65.10;;;;;;5050972;28;20056;-74
2022/08/25 02:03:38;;;;;;;3.88;2.85;;;23.90;65.10;;;;;;5051108;28;20052;-74
2022/08/25 02:06:05;;;;;;;2.92;2.60;;;23.90;65.10;;;;;;5051333;28;20060;-74
2022/08/25 02:08:31;;;;;;;3.17;2.78;;;23.90;65.00;;;;;;5059933;28;20132;-73
2022/08/25 02:10:59;;;;;;;5.15;3.00;;;23.90;65.00;;;;;;5071005;28;20080;-70
2022/08/25 02:13:26;;;;;;;2.85;2.55;;;23.90;65.00;;;;;;5072346;28;20058;-70
2022/08/25 02:15:55;;;;;;;3.17;2.80;;;23.90;65.00;;;;;;5059644;28;20045;-70
2022/08/25 02:18:21;;;;;;;2.90;2.45;;;23.80;65.00;;;;;;5052275;28;20053;-69
2022/08/25 02:20:48;;;;;;;3.30;2.70;;;23.90;65.00;;;;;;5050699;28;20140;-71
2022/08/25 02:23:15;;;;;;;2.95;2.65;;;23.80;65.00;;;;;;5051273;28;20056;-71
2022/08/25 02:25:42;;;;;;;2.80;2.50;;;23.80;65.00;;;;;;5052005;28;20049;-71
2022/08/25 02:28:10;;;;;;;3.10;2.58;;;23.80;65.00;;;;;;5050882;28;20063;-71
2022/08/25 02:30:37;;;;;;;3.60;2.70;;;23.80;65.00;;;;;;5050758;28;20060;-70
2022/08/25 02:33:04;;;;;;;2.60;2.35;;;23.80;65.00;;;;;;5050935;28;20132;-74
2022/08/25 02:35:31;;;;;;;2.70;2.50;;;23.80;65.00;;;;;;5050453;28;20064;-72
2022/08/25 02:37:57;;;;;;;2.90;2.50;;;23.80;65.00;;;;;;5065413;28;20448;-74
2022/08/25 02:40:24;;;;;;;2.95;2.65;;;23.80;65.00;;;;;;5070549;28;20044;-70
2022/08/25 02:42:51;;;;;;;3.03;2.50;;;23.80;65.00;;;;;;5070756;28;20053;-70
2022/08/25 02:45:19;;;;;;;2.85;2.65;;;23.80;64.90;;;;;;5070341;28;20052;-70
2022/08/25 02:47:46;;;;;;;3.05;2.63;;;23.80;64.90;;;;;;5072173;28;20072;-71
2022/08/25 02:50:13;;;;;;;3.40;2.78;;;23.80;65.00;;;;;;5070215;28;20048;-71
2022/08/25 02:52:40;;;;;;;2.90;2.60;;;23.80;65.00;;;;;;5055032;28;20052;-71
2022/08/25 02:55:08;;;;;;;2.90;2.60;;;23.80;64.90;;;;;;5050588;28;20053;-71
2022/08/25 02:57:35;;;;;;;3.22;2.92;;;23.70;64.90;;;;;;5050633;28;20079;-71
2022/08/25 03:00:03;;;;;;;3.25;2.40;;;23.70;64.90;;;;;;5051045;28;20055;-71
2022/08/25 03:02:31;;;;;;;3.13;2.83;;;23.70;64.90;;;;;;5050374;28;20555;-71
2022/08/25 03:04:57;;;;;;;3.45;2.92;;;23.70;64.90;;;;;;5050539;28;20497;-72
2022/08/25 03:07:24;;;;;;;3.55;3.08;;;23.70;64.90;;;;;;5050242;28;20052;-72
2022/08/25 03:09:51;;;;;;;2.97;2.70;;;23.70;64.90;;;;;;5052121;28;20521;-72
2022/08/25 03:12:18;;;;;;;2.97;2.67;;;23.70;64.90;;;;;;5058190;28;20057;-71
2022/08/25 03:14:44;;;;;;;3.15;2.85;;;23.70;64.90;;;;;;5056963;28;20063;-71
2022/08/25 03:17:11;;;;;;;4.28;2.78;;;23.70;64.90;;;;;;5058112;28;20052;-70
2022/08/25 03:19:39;;;;;;;2.85;2.50;;;23.70;64.90;;;;;;5056979;28;20053;-71
2022/08/25 03:22:06;;;;;;;3.25;2.80;;;23.70;64.90;;;;;;5056859;28;20064;-71
2022/08/25 03:24:33;;;;;;;2.90;2.53;;;23.70;64.90;;;;;;5058001;28;20052;-70
2022/08/25 03:26:58;;;;;;;2.78;2.47;;;23.70;64.90;;;;;;5057110;28;20414;-71
2022/08/25 03:29:26;;;;;;;3.13;2.55;;;23.60;64.90;;;;;;5069533;28;20044;-71
2022/08/25 03:31:54;;;;;;;2.85;2.63;;;23.60;64.90;;;;;;5057327;28;20049;-74
2022/08/25 03:34:21;;;;;;;2.85;2.55;;;23.70;64.90;;;;;;5056766;28;20417;-73
2022/08/25 03:36:50;;;;;;;3.10;2.80;;;23.60;64.90;;;;;;5056958;28;20068;-72
2022/08/25 03:39:17;;;;;;;3.55;2.95;;;23.60;64.90;;;;;;5056661;28;20139;-74
2022/08/25 03:41:44;;;;;;;3.13;2.70;;;23.60;64.80;;;;;;5056778;28;20132;-74
2022/08/25 03:44:11;;;;;;;4.15;2.80;;;23.60;64.80;;;;;;5056729;28;20442;-74
2022/08/25 03:46:39;;;;;;;3.47;2.70;;;23.60;64.80;;;;;;5056931;28;20661;-74
2022/08/25 03:49:06;;;;;;;5.00;2.80;;;23.60;64.80;;;;;;5056430;28;20547;-74
2022/08/25 03:51:34;;;;;;;2.97;2.50;;;23.60;64.70;;;;;;5056581;28;20135;-74
2022/08/25 03:54:03;;;;;;;3.78;2.72;;;23.60;64.70;;;;;;5056733;28;20395;-74
2022/08/25 03:56:30;;;;;;;3.05;2.75;;;23.60;64.70;;;;;;5057972;28;20131;-74
2022/08/25 03:58:56;;;;;;;3.75;2.58;;;23.60;64.70;;;;;;5076417;28;20056;-71
2022/08/25 04:01:24;;;;;;;3.80;2.65;;;23.60;64.70;;;;;;5077357;28;20053;-71
2022/08/25 04:03:50;;;;;;;3.13;2.70;;;23.50;64.70;;;;;;5076514;28;20060;-71
2022/08/25 04:06:17;;;;;;;3.15;2.85;;;23.50;65.20;;;;;;5076452;28;20445;-71
2022/08/25 04:08:44;;;;;;;3.47;2.95;;;23.50;64.70;;;;;;5076681;28;20075;-71
2022/08/25 04:11:13;;;;;;;3.92;2.90;;;23.60;64.70;;;;;;5069871;28;20041;-74
2022/08/25 04:13:41;;;;;;;3.00;2.70;;;23.50;64.60;;;;;;5056472;28;20063;-74
2022/08/25 04:16:11;;;;;;;3.25;2.80;;;23.50;64.70;;;;;;5057519;28;20087;-73
2022/08/25 04:18:38;;;;;;;3.33;3.03;;;23.50;64.60;;;;;;5056407;28;20056;-73
2022/08/25 04:21:05;;;;;;;3.20;2.85;;;23.50;64.60;;;;;;5055237;28;20052;-74
2022/08/25 04:23:32;;;;;;;3.80;2.78;;;23.50;64.60;;;;;;5053091;28;20557;-74
2022/08/25 04:25:58;;;;;;;3.22;2.72;;;23.50;64.60;;;;;;5060718;28;20095;-71
2022/08/25 04:28:26;;;;;;;3.47;3.10;;;23.50;64.60;;;;;;5074080;28;20409;-71
2022/08/25 04:30:53;;;;;;;3.45;2.90;;;23.30;65.10;;;;;;5059969;28;20056;-71
2022/08/25 04:33:20;;;;;;;2.95;2.70;;;23.50;64.50;;;;;;5053217;28;20053;-71
2022/08/25 04:35:49;;;;;;;3.67;2.70;;;23.40;64.50;;;;;;5051895;28;20051;-72
2022/08/25 04:38:16;;;;;;;3.15;2.72;;;23.50;64.50;;;;;;5052776;28;20063;-72
2022/08/25 04:40:43;;;;;;;3.25;2.90;;;23.50;64.60;;;;;;5055379;28;20051;-72
2022/08/25 04:43:10;;;;;;;3.70;2.88;;;23.50;64.60;;;;;;5052506;28;20425;-70
2022/08/25 04:45:38;;;;;;;3.33;2.70;;;23.40;64.50;;;;;;5051551;28;20060;-72
2022/08/25 04:48:05;;;;;;;2.60;2.40;;;23.50;64.60;;;;;;5064763;28;20053;-70
2022/08/25 04:50:32;;;;;;;3.58;2.80;;;23.40;64.60;;;;;;5052116;28;20704;-74
2022/08/25 04:52:59;;;;;;;3.65;2.67;;;23.40;64.60;;;;;;5052524;28;20140;-74
2022/08/25 04:55:25;;;;;;;2.80;2.60;;;23.50;64.60;;;;;;5053635;28;20413;-74
2022/08/25 04:57:52;;;;;;;3.25;2.90;;;23.40;64.60;;;;;;5051529;28;20135;-74
2022/08/25 05:00:19;;;;;;;3.25;2.83;;;23.40;64.50;;;;;;5052133;28;20401;-74
2022/08/25 05:02:47;;;;;;;4.20;2.70;;;23.40;64.50;;;;;;5053251;28;20064;-73
2022/08/25 05:05:15;;;;;;;3.30;3.00;;;23.40;64.50;;;;;;5052243;28;20044;-72
2022/08/25 05:07:41;;;;;;;4.03;3.00;;;23.40;64.50;;;;;;5053641;28;20072;-71
2022/08/25 05:10:08;;;;;;;3.30;2.90;;;23.40;64.50;;;;;;5052264;28;20049;-71
2022/08/25 05:12:35;;;;;;;3.38;3.05;;;23.40;64.40;;;;;;5052542;28;20502;-72
2022/08/25 05:15:49;;;;;;;3.92;3.28;;;23.40;64.40;;;;;;5052421;28;20079;-71
2022/08/25 05:17:49;;;;;;;3.60;2.83;;;22.00;63.70;;;;;;5052096;28;20057;-72
2022/08/25 05:20:16;;;;;;;3.13;2.83;;;23.30;64.40;;;;;;5051747;28;20053;-72
2022/08/25 05:22:44;;;;;;;6.63;3.30;;;23.30;64.50;;;;;;5053216;28;20575;-73
2022/08/25 05:25:11;;;;;;;3.05;2.75;;;23.30;64.40;;;;;;5053246;28;20060;-72
2022/08/25 05:27:38;;;;;;;4.10;2.92;;;23.30;64.40;;;;;;5051748;28;20059;-72
2022/08/25 05:30:06;;;;;;;4.15;2.70;;;23.30;64.40;;;;;;5052090;28;20059;-72
2022/08/25 05:32:33;;;;;;;3.53;2.65;;;23.30;64.50;;;;;;5051564;28;20139;-71
2022/08/25 05:35:01;;;;;;;4.00;2.92;;;23.30;64.50;;;;;;5051221;28;20500;-73
2022/08/25 05:37:28;;;;;;;4.43;2.92;;;23.30;64.50;;;;;;5051922;28;20055;-72
2022/08/25 05:39:54;;;;;;;3.33;3.00;;;23.30;64.50;;;;;;5052957;28;20052;-74
2022/08/25 05:42:22;;;;;;;3.83;3.05;;;23.30;64.50;;;;;;5051585;28;20553;-72
2022/08/25 05:44:49;;;;;;;4.18;3.25;;;23.30;64.50;;;;;;5052885;28;20049;-72
2022/08/25 05:47:16;;;;;;;3.97;3.13;;;23.30;64.50;;;;;;5052875;28;20051;-73
2022/08/25 05:49:43;;;;;;;3.70;3.28;;;23.30;64.50;;;;;;5063249;28;20489;-72
2022/08/25 05:52:11;;;;;;;3.55;3.15;;;23.30;64.50;;;;;;5071377;28;20059;-71
2022/08/25 05:54:38;;;;;;;3.72;3.33;;;23.30;64.50;;;;;;5072548;28;20398;-73
2022/08/25 05:57:05;;;;;;;3.63;3.10;;;23.30;64.50;;;;;;5071583;28;20067;-72
2022/08/25 05:59:32;;;;;;;4.30;3.05;;;23.30;64.50;;;;;;5072516;28;20131;-73
2022/08/25 06:04:43;;;;;;;3.78;2.80;;;23.30;64.50;;;;;;5031103;28;20053;-72
2022/08/25 06:07:11;;;;;;;3.30;3.00;;;23.20;64.40;;;;;;5031666;28;20049;-74
2022/08/25 06:09:38;;;;;;;3.85;2.78;;;23.20;64.40;;;;;;5032356;28;20058;-74
2022/08/25 06:12:06;;;;;;;3.42;3.08;;;23.20;64.40;;;;;;5031251;28;20053;-74
2022/08/25 06:14:32;;;;;;;5.47;3.50;;;23.20;64.40;;;;;;5031101;28;20065;-72
2022/08/25 06:17:00;;;;;;;3.88;2.90;;;23.20;64.40;;;;;;5034096;28;20083;-74
2022/08/25 06:19:26;;;;;;;3.80;3.20;;;23.20;64.90;;;;;;5071161;28;20067;-73
2022/08/25 06:21:54;;;;;;;3.38;3.08;;;23.20;64.40;;;;;;5070650;28;20497;-72
2022/08/25 06:24:22;;;;;;;3.90;3.03;;;23.20;64.40;;;;;;5070895;28;20056;-71
2022/08/25 06:26:49;;;;;;;4.03;3.40;;;23.20;64.40;;;;;;5071076;28;20056;-71
2022/08/25 06:29:16;;;;;;;3.47;3.13;;;23.20;64.40;;;;;;5072020;28;20511;-71
2022/08/25 06:31:43;;;;;;;3.83;3.42;;;23.20;64.40;;;;;;5061710;28;20140;-72
2022/08/25 06:34:10;;;;;;;3.25;2.95;;;23.20;64.50;;;;;;5050871;28;20132;-74
2022/08/25 06:36:37;;;;;;;3.30;2.97;;;23.20;64.40;;;;;;5050526;28;20136;-71
2022/08/25 06:39:03;;;;;;;4.15;3.20;;;23.20;64.40;;;;;;5050869;28;20139;-73
2022/08/25 06:41:31;;;;;;;3.83;3.30;;;23.20;64.40;;;;;;5050374;28;20127;-72
2022/08/25 06:43:58;;;;;;;4.47;3.15;;;23.20;64.40;;;;;;5051508;28;20110;-71
2022/08/25 06:46:26;;;;;;;4.13;3.20;;;23.20;64.40;;;;;;5058109;28;20115;-72
2022/08/25 06:48:53;;;;;;;3.40;3.10;;;23.30;64.40;;;;;;5065310;28;20064;-71
2022/08/25 06:51:20;;;;;;;3.20;2.90;;;23.30;64.30;;;;;;5049480;28;20119;-70
2022/08/25 06:53:47;;;;;;;3.50;3.20;;;23.50;64.30;;;;;;5050777;28;20478;-72
2022/08/25 06:56:14;;;;;;;3.67;3.30;;;23.50;64.30;;;;;;5050939;28;20135;-72
2022/08/25 06:58:42;;;;;;;3.72;3.30;;;23.60;64.30;;;;;;5051876;28;20045;-72
2022/08/25 07:01:10;;;;;;;4.03;3.53;;;23.70;64.20;;;;;;5050639;28;20128;-72
2022/08/25 07:03:37;;;;;;;4.35;3.30;;;23.70;64.10;;;;;;5050449;28;20132;-73
2022/08/25 07:06:04;;;;;;;4.45;3.50;;;23.80;64.00;;;;;;5050358;28;20052;-72
2022/08/25 07:08:31;;;;;;;5.90;3.58;;;23.90;63.80;;;;;;5050230;28;20140;-72
2022/08/25 07:10:58;;;;;;;3.67;3.35;;;24.00;63.70;;;;;;5050594;28;20520;-72
2022/08/25 07:13:24;;;;;;;5.68;3.40;;;24.10;63.60;;;;;;5050394;28;20051;-72
2022/08/25 07:15:54;;;;;;;4.70;3.78;;;24.10;63.40;;;;;;5051909;28;20064;-70
2022/08/25 07:18:21;;;;;;;4.93;3.88;;;24.10;63.30;;;;;;5051872;28;20049;-70
2022/08/25 07:20:48;;;;;;;5.82;4.03;;;24.20;63.20;;;;;;5051382;28;20045;-70
2022/08/25 07:23:15;;;;;;;5.28;3.72;;;24.10;63.10;;;;;;5050234;28;20414;-72
2022/08/25 07:25:41;;;;;;;6.05;3.70;;;24.20;63.00;;;;;;5051045;28;20052;-70
2022/08/25 07:28:08;;;;;;;7.50;4.25;;;24.20;62.90;;;;;;5051277;28;20067;-70
2022/08/25 07:30:35;;;;;;;5.55;4.40;;;24.30;62.80;;;;;;5049809;28;20060;-71
2022/08/25 07:33:03;;;;;;;5.50;4.55;;;24.30;62.70;;;;;;5052027;28;20135;-70
2022/08/25 07:35:31;;;;;;;5.43;3.78;;;24.30;62.50;;;;;;5049254;28;20049;-70
2022/08/25 07:37:57;;;;;;;5.45;3.92;;;24.30;62.50;;;;;;5050128;28;20053;-73
2022/08/25 07:40:25;;;;;;;5.50;4.20;;;24.20;62.50;;;;;;5050203;28;20044;-74
2022/08/25 07:42:53;;;;;;;5.20;3.90;;;24.20;62.50;;;;;;5050374;28;20079;-73
2022/08/25 07:45:20;;;;;;;7.32;4.22;;;24.20;62.50;;;;;;5051201;28;20052;-74
2022/08/25 07:47:47;;;;;;;6.90;4.13;;;24.20;62.50;;;;;;5050439;28;20523;-72
2022/08/25 07:50:15;;;;;;;4.78;3.88;;;24.20;62.60;;;;;;5049933;28;20063;-73
2022/08/25 07:52:42;;;;;;;8.05;4.68;;;24.20;62.60;;;;;;5049100;28;20469;-73
2022/08/25 07:55:10;;;;;;;6.07;4.20;;;22.90;62.80;;;;;;5049390;28;20071;-72
2022/08/25 07:57:36;;;;;;;6.25;4.10;;;24.10;62.60;;;;;;5052523;28;20136;-72
2022/08/25 08:00:05;;;;;;;4.88;4.10;;;24.10;62.60;;;;;;5053997;28;20084;-73
2022/08/25 08:02:32;;;;;;;6.18;4.05;;;24.10;62.60;;;;;;5053487;28;20053;-74
2022/08/25 08:04:59;;;;;;;6.68;4.20;;;24.10;62.60;;;;;;5053494;28;20514;-71
2022/08/25 08:07:27;;;;;;;5.00;4.40;;;24.10;62.60;;;;;;5052597;28;20057;-70
2022/08/25 08:09:54;;;;;;;6.45;4.30;;;24.10;62.70;;;;;;5053767;28;20052;-78
2022/08/25 08:12:22;;;;;;;7.32;4.38;;;24.00;62.70;;;;;;5054814;28;20049;-69
2022/08/25 08:14:49;;;;;;;5.40;4.15;;;24.00;62.80;;;;;;5053722;28;20409;-72
2022/08/25 08:17:16;;;;;;;4.80;3.90;;;24.10;62.90;;;;;;5054900;28;20128;-71
2022/08/25 08:19:42;;;;;;;5.88;4.20;;;24.10;63.00;;;;;;5054481;28;20049;-72
2022/08/25 08:22:13;;;;;;;6.18;4.22;;;24.10;63.00;;;;;;5053005;28;20521;-71
2022/08/25 08:24:43;;;;;;;6.10;4.00;;;24.10;63.00;;;;;;5052943;28;20063;-71
2022/08/25 08:27:10;;;;;;;7.25;4.50;;;24.10;63.00;;;;;;5054131;28;20041;-72
2022/08/25 08:29:37;;;;;;;4.72;3.67;;;24.20;63.00;;;;;;5050512;28;20133;-72
2022/08/25 08:32:04;;;;;;;5.47;3.97;;;24.20;62.90;;;;;;5052685;28;20110;-71
2022/08/25 08:34:31;;;;;;;8.68;4.05;;;24.20;62.90;;;;;;5052879;28;20123;-72
2022/08/25 08:36:58;;;;;;;5.78;4.03;;;24.30;62.90;;;;;;5052875;28;20057;-71
2022/08/25 08:39:24;;;;;;;7.40;3.95;;;24.30;62.90;;;;;;5052905;28;20128;-72
2022/08/25 08:42:20;;;;;;;4.30;3.80;;;24.30;62.80;;;;;;5053179;28;20379;-73
2022/08/25 08:44:59;;;;;;;4.30;3.50;;;24.30;62.80;;;;;;5053093;28;20065;-72
2022/08/25 08:47:31;;;;;;;7.95;4.20;;;24.40;62.90;;;;;;5053927;28;20052;-70
2022/08/25 08:50:02;;;;;;;7.20;4.20;;;24.40;62.80;;;;;;5052749;28;20059;-71
2022/08/25 08:52:36;;;;;;;7.43;3.75;;;24.60;62.80;;;;;;5051208;28;20127;-71
2022/08/25 08:55:04;;;;;;;5.13;4.00;;;24.40;62.70;;;;;;5052095;28;20059;-70
2022/08/25 08:57:34;;;;;;;5.57;3.70;;;24.40;62.70;;;;;;5049535;28;20403;-71
2022/08/25 09:00:01;;;;;;;4.95;4.25;;;24.50;62.70;;;;;;5052241;28;20110;-71
2022/08/25 09:02:30;;;;;;;6.57;3.70;;;24.50;62.70;;;;;;5051921;28;20149;-71
2022/08/25 09:04:58;;;;;;;7.38;4.05;;;24.50;62.70;;;;;;5052120;28;20059;-70
2022/08/25 09:07:27;;;;;;;6.28;4.00;;;24.50;62.70;;;;;;5053170;28;20735;-70
2022/08/25 09:09:54;;;;;;;6.32;3.85;;;24.50;62.70;;;;;;5053187;28;20053;-70
2022/08/25 09:12:24;;;;;;;4.78;3.60;;;24.50;62.70;;;;;;5053291;28;20044;-70
2022/08/25 09:15:03;;;;;;;7.20;3.78;;;24.50;63.50;;;;;;5050558;28;20045;-72
2022/08/25 09:17:45;;;;;;;5.25;3.78;;;24.50;62.60;;;;;;5052934;28;20051;-72
2022/08/25 09:20:22;;;;;;;4.65;3.35;;;24.50;62.60;;;;;;5051987;28;20040;-71
2022/08/25 09:22:54;;;;;;;4.57;3.60;;;24.50;62.60;;;;;;5051149;28;20047;-73
2022/08/25 09:25:24;;;;;;;4.00;3.60;;;24.60;62.70;;;;;;5049382;28;20051;-73
2022/08/25 09:27:57;;;;;;;4.80;3.67;;;24.60;62.60;;;;;;5048693;28;20517;-73
2022/08/25 09:30:25;;;;;;;4.10;3.67;;;24.60;62.60;;;;;;5051934;28;20056;-73
2022/08/25 09:33:00;;;;;;;5.55;3.30;;;24.60;62.50;;;;;;5050655;28;20127;-73
2022/08/25 09:35:28;;;;;;;5.78;3.60;;;24.60;62.50;;;;;;5064609;28;20057;-73
2022/08/25 09:37:58;;;;;;;4.82;3.35;;;24.60;62.40;;;;;;5051146;28;20529;-73
2022/08/25 09:40:25;;;;;;;4.57;3.42;;;24.70;62.40;;;;;;5051581;28;20049;-71
2022/08/25 09:42:54;;;;;;;3.83;3.33;;;24.70;62.40;;;;;;5053219;28;20136;-71
2022/08/25 09:45:33;;;;;;;4.60;3.42;;;24.80;62.40;;;;;;5052895;28;20041;-70
2022/08/25 09:48:01;;;;;;;3.92;3.53;;;24.80;62.30;;;;;;5052452;28;20057;-71
2022/08/25 09:50:31;;;;;;;6.03;3.78;;;24.80;62.30;;;;;;5052200;28;20055;-70
2022/08/25 09:53:01;;;;;;;4.78;3.80;;;24.90;62.20;;;;;;5050849;28;20052;-70
2022/08/25 09:55:30;;;;;;;3.90;3.30;;;24.90;62.20;;;;;;5051979;28;20099;-73
2022/08/25 09:57:58;;;;;;;4.38;3.38;;;24.90;62.10;;;;;;5051825;28;20056;-72
2022/08/25 10:00:27;;;;;;;3.72;3.08;;;24.90;62.10;;;;;;5051176;28;20478;-72
2022/08/25 10:03:22;;;;;;;3.90;2.95;;;24.90;62.00;;;;;;5051116;28;20068;-71
2022/08/25 10:05:57;;;;;;;;;;;25.00;62.00;;;;;;5005710;28;20045;-72
2022/08/25 10:08:29;;;;;;;3.73;3.17;;;24.90;62.20;;;;;;5052339;28;20007;-72
2022/08/25 10:10:56;;;;;;;4.25;3.20;;;24.90;62.00;;;;;;5051043;28;20131;-72
2022/08/25 10:13:33;;;;;;;3.60;3.30;;;24.90;61.90;;;;;;5051176;28;20432;-71
2022/08/25 10:16:04;;;;;;;3.55;3.17;;;25.10;62.00;;;;;;5051508;28;20052;-71
2022/08/25 10:18:32;;;;;;;4.10;3.25;;;25.00;61.80;;;;;;5051426;28;20052;-71
2022/08/25 10:21:04;;;;;;;4.90;3.05;;;25.00;61.80;;;;;;5050127;28;20060;-71
2022/08/25 10:23:31;;;;;;;3.85;3.10;;;25.00;61.80;;;;;;5051223;28;20055;-73
2022/08/25 10:26:01;;;;;;;3.92;3.10;;;25.10;61.80;;;;;;5050754;28;20120;-72
2022/08/25 10:28:32;;;;;;;4.50;3.20;;;25.10;61.80;;;;;;5050535;28;20151;-72
2022/08/25 10:31:03;;;;;;;3.47;3.15;;;25.10;61.90;;;;;;5048108;28;20484;-72
2022/08/25 10:33:35;;;;;;;3.25;2.95;;;25.10;61.80;;;;;;5048723;28;20091;-72
2022/08/25 10:36:05;;;;;;;3.85;2.83;;;25.10;61.80;;;;;;5049347;28;20137;-71
2022/08/25 10:38:39;;;;;;;3.13;2.83;;;25.10;61.80;;;;;;5049618;28;20140;-72
2022/08/25 10:41:24;;;;;;;3.60;3.10;;;25.10;61.80;;;;;;5048991;28;20136;-71
2022/08/25 10:43:54;;;;;;;4.22;3.10;;;25.20;61.80;;;;;;5049589;28;20471;-72
2022/08/25 10:46:23;;;;;;;3.42;2.80;;;25.20;61.80;;;;;;5051124;28;20057;-72
2022/08/25 10:48:58;;;;;;;3.15;2.85;;;25.20;61.80;;;;;;5050199;28;20056;-71
2022/08/25 10:51:43;;;;;;;4.57;3.28;;;25.20;61.80;;;;;;5050316;28;20052;-72
2022/08/25 10:54:18;;;;;;;4.65;3.08;;;25.20;61.80;;;;;;5050899;28;20504;-71
2022/08/25 10:56:49;;;;;;;3.90;3.20;;;25.20;61.70;;;;;;5051070;28;20061;-72
2022/08/25 10:59:22;;;;;;;3.35;3.05;;;25.20;61.70;;;;;;5050929;28;20067;-72
2022/08/25 11:02:11;;;;;;;3.42;3.13;;;25.20;61.70;;;;;;5050660;28;20452;-71
2022/08/25 11:04:41;;;;;;;3.88;2.90;;;25.30;61.80;;;;;;5050434;28;20393;-71
2022/08/25 11:07:10;;;;;;;2.78;2.58;;;25.30;61.80;;;;;;5050716;28;20114;-71
2022/08/25 11:09:39;;;;;;;3.33;2.65;;;25.30;61.70;;;;;;5050816;28;20124;-74
2022/08/25 11:12:08;;;;;;;3.15;2.85;;;25.30;61.70;;;;;;5050207;28;20060;-73
2022/08/25 11:14:36;;;;;;;3.40;2.92;;;25.30;61.70;;;;;;5050412;28;20087;-73
2022/08/25 11:17:06;;;;;;;3.03;2.67;;;25.30;61.70;;;;;;5049147;28;20604;-73
2022/08/25 11:19:34;;;;;;;3.83;2.88;;;25.30;61.70;;;;;;5050531;28;20049;-73
2022/08/25 11:22:06;;;;;;;4.28;2.85;;;25.30;61.70;;;;;;5050163;28;20049;-71
2022/08/25 11:24:41;;;;;;;3.78;3.13;;;25.30;61.70;;;;;;5050231;28;20053;-70
2022/08/25 11:27:11;;;;;;;3.75;3.20;;;25.30;61.70;;;;;;5051671;28;20049;-71
2022/08/25 11:29:38;;;;;;;3.33;2.75;;;25.30;61.70;;;;;;5051417;28;20052;-71
2022/08/25 11:32:05;;;;;;;3.42;2.70;;;25.40;61.80;;;;;;5053862;28;20072;-71
2022/08/25 11:34:32;;;;;;;3.13;2.80;;;25.40;61.80;;;;;;5055525;28;20075;-70
2022/08/25 11:37:02;;;;;;;3.50;3.05;;;25.40;61.80;;;;;;5053385;28;20052;-71
2022/08/25 11:39:42;;;;;;;4.07;2.78;;;25.40;61.80;;;;;;5055372;28;20053;-70
2022/08/25 11:42:15;;;;;;;3.13;2.83;;;25.40;61.80;;;;;;5054258;28;20429;-70
2022/08/25 11:44:47;;;;;;;3.97;3.20;;;25.40;61.80;;;;;;5055369;28;20102;-71
2022/08/25 11:47:25;;;;;;;4.10;2.90;;;25.40;61.80;;;;;;5054218;28;20052;-73
2022/08/25 11:49:52;;;;;;;3.20;2.55;;;25.40;61.80;;;;;;5055426;28;20558;-71
2022/08/25 11:52:41;;;;;;;2.80;2.50;;;25.40;61.80;;;;;;5054914;28;20080;-71
2022/08/25 11:55:12;;;;;;;3.08;2.55;;;25.50;62.00;;;;;;5055364;28;20302;-73
2022/08/25 11:57:39;;;;;;;4.85;2.72;;;25.40;61.90;;;;;;5053919;28;20128;-73
2022/08/25 12:00:12;;;;;;;3.50;2.70;;;25.40;61.90;;;;;;5053612;28;20132;-73
2022/08/25 12:02:40;;;;;;;3.83;2.97;;;25.50;62.00;;;;;;5053645;28;20084;-72
2022/08/25 12:05:08;;;;;;;3.15;2.83;;;25.50;62.00;;;;;;5053881;28;20135;-72
2022/08/25 12:10:55;;;;;;;4.85;2.97;;;25.50;62.00;;;;;;5052233;28;20049;-72
2022/08/25 12:13:42;;;;;;;3.75;3.10;;;25.50;62.00;;;;;;5051154;28;20132;-72
2022/08/25 12:16:40;;;;;;;3.15;2.70;;;25.50;61.80;;;;;;5053393;28;20061;-73
2022/08/25 12:19:25;;;;;;;4.07;3.00;;;25.50;61.90;;;;;;5053534;28;20051;-74
2022/08/25 12:21:52;;;;;;;4.25;2.83;;;25.50;61.80;;;;;;5053256;28;20103;-74
2022/08/25 12:24:20;;;;;;;5.65;3.08;;;25.60;61.80;;;;;;5053371;28;20080;-74
2022/08/25 12:26:55;;;;;;;3.20;2.80;;;25.60;61.80;;;;;;5053509;28;20055;-73
2022/08/25 12:29:28;;;;;;;3.22;2.72;;;25.60;61.90;;;;;;5052729;28;20135;-74
2022/08/25 12:32:31;;;;;;;4.25;2.97;;;25.60;61.90;;;;;;5050304;28;20045;-73
2022/08/25 12:35:17;;;;;;;5.13;2.92;;;25.60;61.90;;;;;;5051265;28;20053;-73
2022/08/25 12:37:54;;;;;;;4.15;2.92;;;25.60;61.90;;;;;;5033567;28;20484;-73
2022/08/25 12:40:23;;;;;;;4.55;3.05;;;25.60;62.00;;;;;;5033108;28;20136;-73
2022/08/25 12:43:00;;;;;;;5.35;3.00;;;25.60;61.90;;;;;;5032775;28;20049;-73
2022/08/25 12:45:37;;;;;;;3.92;3.05;;;25.60;62.00;;;;;;5044915;28;20136;-73
2022/08/25 12:48:41;;;;;;;3.67;2.88;;;25.60;62.00;;;;;;5073261;28;20487;-73
2022/08/25 12:51:08;;;;;;;4.05;3.25;;;25.60;62.00;;;;;;5072934;28;20382;-73
2022/08/25 12:53:37;;;;;;;3.92;3.10;;;25.60;62.00;;;;;;5072556;28;20059;-74
2022/08/25 12:56:06;;;;;;;4.38;2.97;;;25.60;62.00;;;;;;5073083;28;20505;-74
2022/08/25 12:58:36;;;;;;;2.92;2.55;;;25.60;61.90;;;;;;5072968;28;20135;-74
2022/08/25 13:01:13;;;;;;;4.63;2.80;;;25.60;61.90;;;;;;5032566;28;20060;-74
2022/08/25 13:04:08;;;;;;;3.15;2.80;;;25.60;61.90;;;;;;5032932;28;20056;-73
2022/08/25 13:06:45;;;;;;;3.17;2.70;;;25.60;62.00;;;;;;5033035;28;20513;-74